createdAt,value
2022-11-06T00:01:42.578Z,7.03
2022-11-06T00:04:12.633Z,6.95
2022-11-06T00:06:50.044Z,6.76
2022-11-06T00:09:20.424Z,6.92
2022-11-06T00:11:50.491Z,6.82
2022-11-06T00:14:18.883Z,6.69
2022-11-06T00:16:47.876Z,6.59
2022-11-06T00:19:16.259Z,6.70
2022-11-06T00:21:45.656Z,6.78
2022-11-06T00:24:14.841Z,6.58
2022-11-06T00:26:45.870Z,6.73
2022-11-06T00:29:19.148Z,6.73
2022-11-06T00:31:47.170Z,6.69
2022-11-06T00:34:16.322Z,6.82
2022-11-06T00:36:45.570Z,6.67
2022-11-06T00:39:13.268Z,6.73
2022-11-06T00:41:41.071Z,6.75
2022-11-06T00:44:10.976Z,6.75
2022-11-06T00:46:38.832Z,6.99
2022-11-06T00:49:06.783Z,6.88
2022-11-06T00:51:37.097Z,6.77
2022-11-06T00:54:08.182Z,6.50
2022-11-06T00:56:36.354Z,6.60
2022-11-06T00:59:05.848Z,6.49
2022-11-06T01:01:37.759Z,6.27
2022-11-06T01:04:06.847Z,6.26
2022-11-06T01:06:35.812Z,6.56
2022-11-06T01:09:04.084Z,6.64
2022-11-06T01:11:59.183Z,6.76
2022-11-06T01:14:24.076Z,6.57
2022-11-06T01:16:52.245Z,6.72
2022-11-06T01:19:21.805Z,6.47
2022-11-06T01:21:50.781Z,6.21
2022-11-06T01:24:21.302Z,6.33
2022-11-06T01:27:19.907Z,6.23
2022-11-06T01:29:38.464Z,6.14
2022-11-06T01:32:07.407Z,6.02
2022-11-06T01:34:34.945Z,6.04
2022-11-06T01:37:02.652Z,5.96
2022-11-06T01:39:30.148Z,6.15
2022-11-06T01:41:59.057Z,5.99
2022-11-06T01:45:15.462Z,6.14
2022-11-06T01:47:43.315Z,6.13
2022-11-06T01:50:12.845Z,5.99
2022-11-06T01:52:40.676Z,6.18
2022-11-06T01:55:11.965Z,6.22
2022-11-06T01:57:41.198Z,6.26
2022-11-06T02:00:10.079Z,6.34
2022-11-06T02:02:39.085Z,6.34
2022-11-06T02:05:07.290Z,6.23
2022-11-06T02:07:35.071Z,5.94
2022-11-06T02:10:03.028Z,5.95
2022-11-06T02:12:54.522Z,6.16
2022-11-06T02:15:30.018Z,6.53
2022-11-06T02:18:11.428Z,6.37
2022-11-06T02:20:51.891Z,6.25
2022-11-06T02:23:30.560Z,6.10
2022-11-06T02:26:06.902Z,6.10
2022-11-06T02:28:39.135Z,6.17
2022-11-06T02:31:13.151Z,6.23
2022-11-06T02:33:45.739Z,5.99
2022-11-06T02:36:16.049Z,5.79
2022-11-06T02:38:46.431Z,5.68
2022-11-06T02:41:17.595Z,5.49
2022-11-06T02:43:49.226Z,5.64
2022-11-06T02:46:19.878Z,5.81
2022-11-06T02:48:49.924Z,5.94
2022-11-06T02:51:22.070Z,5.94
2022-11-06T02:53:49.833Z,5.73
2022-11-06T02:56:19.571Z,5.56
2022-11-06T02:58:51.224Z,5.53
2022-11-06T03:01:22.783Z,5.44
2022-11-06T03:03:52.787Z,5.42
2022-11-06T03:06:24.086Z,5.40
2022-11-06T03:08:54.752Z,5.40
2022-11-06T03:11:24.234Z,5.25
2022-11-06T03:13:57.815Z,5.18
2022-11-06T03:16:30.723Z,5.08
2022-11-06T03:19:03.846Z,4.99
2022-11-06T03:21:33.707Z,4.90
2022-11-06T03:24:05.717Z,5.20
2022-11-06T03:26:36.974Z,5.27
2022-11-06T03:29:10.654Z,5.55
2022-11-06T03:31:40.455Z,5.45
2022-11-06T03:34:10.425Z,5.35
2022-11-06T03:36:39.743Z,4.93
2022-11-06T03:39:09.780Z,4.89
2022-11-06T03:41:40.786Z,4.69
2022-11-06T03:44:11.525Z,4.48
2022-11-06T03:46:43.393Z,4.52
2022-11-06T03:49:14.771Z,4.66
2022-11-06T03:51:45.700Z,4.60
2022-11-06T03:54:16.012Z,4.66
2022-11-06T03:56:47.054Z,4.59
2022-11-06T03:59:19.100Z,4.61
2022-11-06T04:01:47.748Z,4.62
2022-11-06T04:04:20.105Z,4.79
2022-11-06T04:06:49.649Z,4.76
2022-11-06T04:09:35.443Z,4.69
2022-11-06T04:12:22.813Z,4.28
2022-11-06T04:14:54.196Z,4.04
2022-11-06T04:17:23.744Z,4.05
2022-11-06T04:19:53.098Z,4.29
2022-11-06T04:22:32.041Z,4.26
2022-11-06T04:25:23.185Z,3.97
2022-11-06T04:28:03.343Z,4.19
2022-11-06T04:30:35.095Z,4.26
2022-11-06T04:33:07.401Z,3.92
2022-11-06T04:35:42.611Z,3.93
2022-11-06T04:38:16.822Z,3.77
2022-11-06T04:40:50.529Z,3.82
2022-11-06T04:43:24.321Z,4.03
2022-11-06T04:45:55.261Z,4.10
2022-11-06T04:48:24.211Z,4.06
2022-11-06T04:50:55.561Z,3.90
2022-11-06T04:53:23.934Z,4.02
2022-11-06T04:55:54.478Z,4.20
2022-11-06T04:58:21.961Z,4.09
2022-11-06T05:00:51.368Z,3.97
2022-11-06T05:03:20.321Z,3.81
2022-11-06T05:05:48.886Z,3.58
2022-11-06T05:08:18.565Z,3.44
2022-11-06T05:10:46.396Z,3.42
2022-11-06T05:13:14.270Z,3.38
2022-11-06T05:15:42.207Z,3.37
2022-11-06T05:18:09.875Z,3.27
2022-11-06T05:20:38.931Z,3.22
2022-11-06T05:23:05.523Z,3.08
2022-11-06T05:25:34.677Z,3.03
2022-11-06T05:28:03.173Z,3.12
2022-11-06T05:30:30.672Z,3.25
2022-11-06T05:32:58.190Z,3.29
2022-11-06T05:35:25.749Z,3.19
2022-11-06T05:37:59.763Z,3.15
2022-11-06T05:40:27.265Z,2.92
2022-11-06T05:42:54.748Z,3.09
2022-11-06T05:45:22.220Z,3.02
2022-11-06T05:47:49.703Z,2.92
2022-11-06T05:50:17.365Z,2.69
2022-11-06T05:52:44.866Z,2.77
2022-11-06T05:55:15.384Z,2.93
2022-11-06T05:57:43.452Z,2.70
2022-11-06T06:00:13.178Z,2.69
2022-11-06T06:02:41.278Z,2.84
2022-11-06T06:05:09.897Z,3.02
2022-11-06T06:07:37.662Z,3.10
2022-11-06T06:10:05.955Z,3.00
2022-11-06T06:12:35.062Z,2.78
2022-11-06T06:15:02.682Z,2.74
2022-11-06T06:17:30.216Z,2.61
2022-11-06T06:19:57.702Z,2.52
2022-11-06T06:22:25.215Z,2.51
2022-11-06T06:24:52.724Z,2.66
2022-11-06T06:27:20.286Z,2.83
2022-11-06T06:29:49.095Z,3.07
2022-11-06T06:32:16.799Z,3.33
2022-11-06T06:34:44.241Z,3.42
2022-11-06T06:37:14.351Z,3.43
2022-11-06T06:39:43.924Z,3.40
2022-11-06T06:42:11.510Z,3.26
2022-11-06T06:44:38.992Z,3.27
2022-11-06T06:47:07.848Z,3.27
2022-11-06T06:49:35.755Z,3.32
2022-11-06T06:52:04.155Z,3.45
2022-11-06T06:54:31.670Z,3.50
2022-11-06T06:56:59.870Z,3.65
2022-11-06T06:59:28.752Z,3.87
2022-11-06T07:01:56.617Z,3.74
2022-11-06T07:04:25.653Z,3.94
2022-11-06T07:06:54.474Z,4.02
2022-11-06T07:09:21.975Z,3.89
2022-11-06T07:11:49.466Z,3.92
2022-11-06T07:14:16.986Z,4.10
2022-11-06T07:16:47.294Z,4.01
2022-11-06T07:19:17.209Z,4.21
2022-11-06T07:21:46.038Z,4.21
2022-11-06T07:24:13.705Z,4.30
2022-11-06T07:26:41.165Z,4.51
2022-11-06T07:29:09.439Z,4.66
2022-11-06T07:31:36.918Z,4.52
2022-11-06T07:34:04.473Z,4.54
2022-11-06T07:36:32.764Z,4.75
2022-11-06T07:39:01.560Z,4.54
2022-11-06T07:41:29.008Z,4.58
2022-11-06T07:43:56.522Z,4.72
2022-11-06T07:46:23.990Z,4.87
2022-11-06T07:48:51.501Z,4.68
2022-11-06T07:51:19.083Z,4.62
2022-11-06T07:53:46.802Z,4.76
2022-11-06T07:56:15.849Z,4.88
2022-11-06T07:58:43.657Z,4.98
2022-11-06T08:01:18.650Z,4.75
2022-11-06T08:03:46.720Z,4.88
2022-11-06T08:06:14.458Z,4.77
2022-11-06T08:08:42.247Z,4.69
2022-11-06T08:11:12.860Z,4.54
2022-11-06T08:13:41.946Z,4.54
2022-11-06T08:16:11.464Z,4.69
2022-11-06T08:18:39.690Z,4.78
2022-11-06T08:21:08.180Z,4.83
2022-11-06T08:23:36.470Z,4.85
2022-11-06T08:26:05.744Z,4.94
2022-11-06T08:28:33.411Z,5.14
2022-11-06T08:31:06.005Z,5.33
2022-11-06T08:33:33.961Z,5.30
2022-11-06T08:36:02.746Z,5.22
2022-11-06T08:38:30.508Z,5.30
2022-11-06T08:40:58.399Z,5.33
2022-11-06T08:43:26.621Z,5.47
2022-11-06T08:45:54.642Z,5.54
2022-11-06T08:48:23.546Z,5.68
2022-11-06T08:50:51.302Z,5.81
2022-11-06T08:53:19.241Z,5.70
2022-11-06T08:55:46.986Z,5.88
2022-11-06T08:58:15.063Z,6.02
2022-11-06T09:00:42.828Z,6.16
2022-11-06T09:03:13.385Z,6.25
2022-11-06T09:05:43.131Z,6.20
2022-11-06T09:08:11.436Z,6.15
2022-11-06T09:10:40.594Z,5.99
2022-11-06T09:13:08.441Z,5.90
2022-11-06T09:15:36.110Z,6.03
2022-11-06T09:18:03.712Z,5.97
2022-11-06T09:20:31.251Z,6.14
2022-11-06T09:23:03.204Z,6.30
2022-11-06T09:25:31.122Z,6.36
2022-11-06T09:28:00.049Z,6.53
2022-11-06T09:30:28.381Z,6.58
2022-11-06T09:32:58.137Z,6.63
2022-11-06T09:35:26.862Z,6.44
2022-11-06T09:37:54.433Z,6.52
2022-11-06T09:40:28.056Z,6.67
2022-11-06T09:43:03.208Z,6.58
2022-11-06T09:45:32.124Z,6.62
2022-11-06T09:48:03.591Z,6.72
2022-11-06T09:50:35.339Z,6.69
2022-11-06T09:53:07.484Z,6.81
2022-11-06T09:55:39.982Z,6.75
2022-11-06T09:58:13.218Z,6.66
2022-11-06T10:00:41.290Z,6.75
2022-11-06T10:03:15.454Z,6.79
2022-11-06T10:05:43.488Z,6.82
2022-11-06T10:08:17.051Z,6.95
2022-11-06T10:10:51.760Z,7.10
2022-11-06T10:13:28.619Z,7.18
2022-11-06T10:16:01.814Z,7.28
2022-11-06T10:18:37.558Z,7.24
2022-11-06T10:21:10.713Z,7.52
2022-11-06T10:23:46.161Z,7.42
2022-11-06T10:26:16.979Z,7.53
2022-11-06T10:29:09.250Z,7.52
2022-11-06T10:31:41.986Z,7.68
2022-11-06T10:34:12.120Z,7.97
2022-11-06T10:36:48.730Z,7.91
2022-11-06T10:39:20.684Z,7.84
2022-11-06T10:42:01.063Z,7.93
2022-11-06T10:44:32.762Z,7.97
2022-11-06T10:47:06.135Z,8.00
2022-11-06T10:49:37.760Z,8.03
2022-11-06T10:52:14.297Z,8.14
2022-11-06T10:54:55.431Z,8.17
2022-11-06T10:57:32.442Z,8.32
2022-11-06T11:00:00.219Z,8.32
2022-11-06T11:02:31.008Z,8.44
2022-11-06T11:04:58.895Z,8.50
2022-11-06T11:07:29.165Z,8.53
2022-11-06T11:09:56.667Z,8.61
2022-11-06T11:12:27.538Z,8.57
2022-11-06T11:15:13.226Z,8.69
2022-11-06T11:17:41.756Z,8.78
2022-11-06T11:20:32.125Z,8.81
2022-11-06T11:23:07.377Z,8.92
2022-11-06T11:25:35.147Z,8.91
2022-11-06T11:28:05.189Z,9.09
2022-11-06T11:30:32.886Z,9.05
2022-11-06T11:33:00.435Z,8.88
2022-11-06T11:35:29.478Z,8.99
2022-11-06T11:38:07.809Z,9.15
2022-11-06T11:40:37.406Z,9.12
2022-11-06T11:43:22.981Z,9.15
2022-11-06T11:46:04.043Z,9.23
2022-11-06T11:48:43.424Z,9.34
2022-11-06T11:51:19.842Z,9.27
2022-11-06T11:53:47.491Z,9.31
2022-11-06T11:56:22.863Z,9.46
2022-11-06T11:59:05.289Z,9.42
2022-11-06T12:01:38.767Z,9.45
2022-11-06T12:04:17.646Z,9.69
2022-11-06T12:06:56.738Z,9.75
2022-11-06T12:09:24.739Z,9.72
2022-11-06T12:11:52.991Z,9.69
2022-11-06T12:14:29.119Z,9.76
2022-11-06T12:17:00.408Z,9.84
2022-11-06T12:19:30.211Z,9.93
2022-11-06T12:21:59.674Z,10.15
2022-11-06T12:24:31.612Z,10.25
2022-11-06T12:27:01.389Z,10.26
2022-11-06T12:29:33.269Z,10.29
2022-11-06T12:32:03.725Z,10.37
2022-11-06T12:34:35.016Z,10.56
2022-11-06T12:37:14.715Z,10.57
2022-11-06T12:39:44.723Z,10.75
2022-11-06T12:42:13.597Z,10.76
2022-11-06T12:44:42.479Z,10.71
2022-11-06T12:47:16.529Z,10.71
2022-11-06T12:50:19.675Z,10.56
2022-11-06T12:53:05.003Z,10.69
2022-11-06T12:55:35.795Z,10.71
2022-11-06T12:58:12.353Z,10.71
2022-11-06T13:00:50.625Z,10.73
2022-11-06T13:03:29.745Z,10.84
2022-11-06T13:06:02.204Z,10.87
2022-11-06T13:08:36.727Z,10.84
2022-11-06T13:11:12.053Z,10.85
2022-11-06T13:13:47.133Z,10.91
2022-11-06T13:16:23.648Z,10.94
2022-11-06T13:18:57.334Z,10.93
2022-11-06T13:21:32.110Z,11.00
2022-11-06T13:24:02.292Z,11.08
2022-11-06T13:26:34.886Z,11.16
2022-11-06T13:29:05.507Z,11.11
2022-11-06T13:31:38.616Z,11.10
2022-11-06T13:34:06.891Z,11.27
2022-11-06T13:36:37.592Z,11.41
2022-11-06T13:39:11.795Z,11.45
2022-11-06T13:41:39.440Z,11.44
2022-11-06T13:44:08.395Z,11.41
2022-11-06T13:46:40.978Z,11.38
2022-11-06T13:49:45.772Z,11.44
2022-11-06T13:52:06.270Z,11.44
2022-11-06T13:54:42.404Z,11.32
2022-11-06T13:57:32.635Z,11.20
2022-11-06T14:00:12.022Z,11.19
2022-11-06T14:03:00.958Z,11.20
2022-11-06T14:05:46.732Z,11.20
2022-11-06T14:08:17.691Z,11.30
2022-11-06T14:10:53.875Z,11.21
2022-11-06T14:13:28.886Z,11.24
2022-11-06T14:16:11.309Z,11.35
2022-11-06T14:18:43.176Z,11.39
2022-11-06T14:21:44.366Z,11.41
2022-11-06T14:24:40.638Z,11.30
2022-11-06T14:27:13.606Z,11.26
2022-11-06T14:29:59.469Z,11.23
2022-11-06T14:32:47.863Z,11.27
2022-11-06T14:35:51.229Z,11.17
2022-11-06T14:38:32.890Z,11.02
2022-11-06T14:41:01.065Z,11.05
2022-11-06T14:43:31.347Z,11.02
2022-11-06T14:46:02.650Z,11.08
2022-11-06T14:48:32.789Z,10.95
2022-11-06T14:51:01.672Z,10.84
2022-11-06T14:53:33.197Z,10.78
2022-11-06T14:56:03.222Z,10.74
2022-11-06T14:58:32.987Z,10.79
2022-11-06T15:01:02.211Z,10.79
2022-11-06T15:03:37.087Z,10.80
2022-11-06T15:06:21.488Z,10.75
2022-11-06T15:09:00.043Z,10.76
2022-11-06T15:11:49.810Z,10.66
2022-11-06T15:14:55.096Z,10.64
2022-11-06T15:17:24.367Z,10.58
2022-11-06T15:19:58.842Z,10.61
2022-11-06T15:22:31.144Z,10.59
2022-11-06T15:25:03.727Z,10.60
2022-11-06T15:27:41.784Z,10.47
2022-11-06T15:30:16.401Z,10.36
2022-11-06T15:33:17.946Z,10.31
2022-11-06T15:35:49.637Z,10.30
2022-11-06T15:38:20.225Z,10.17
2022-11-06T15:40:49.924Z,10.15
2022-11-06T15:43:26.083Z,10.20
2022-11-06T15:46:07.203Z,10.14
2022-11-06T15:48:35.515Z,10.09
2022-11-06T15:51:20.668Z,10.02
2022-11-06T15:53:48.534Z,9.99
2022-11-06T15:56:19.196Z,10.00
2022-11-06T15:58:47.533Z,9.98
2022-11-06T16:01:16.744Z,10.01
2022-11-06T16:03:48.334Z,9.91
2022-11-06T16:06:16.658Z,9.79
2022-11-06T16:08:44.883Z,9.79
2022-11-06T16:11:14.129Z,9.75
2022-11-06T16:13:44.322Z,9.67
2022-11-06T16:16:34.796Z,9.53
2022-11-06T16:19:15.622Z,9.37
2022-11-06T16:21:49.798Z,9.45
2022-11-06T16:24:21.048Z,9.51
2022-11-06T16:26:50.255Z,9.51
2022-11-06T16:29:22.309Z,9.55
2022-11-06T16:31:51.071Z,9.52
2022-11-06T16:34:23.193Z,9.53
2022-11-06T16:36:56.397Z,9.53
2022-11-06T16:39:50.464Z,9.48
2022-11-06T16:42:32.582Z,9.45
2022-11-06T16:45:17.788Z,9.36
2022-11-06T16:48:26.683Z,9.34
2022-11-06T16:50:56.222Z,9.37
2022-11-06T16:53:26.766Z,9.40
2022-11-06T16:55:59.859Z,9.34
2022-11-06T16:58:29.531Z,9.24
2022-11-06T17:01:06.231Z,9.14
2022-11-06T17:03:40.763Z,9.15
2022-11-06T17:06:19.659Z,9.10
2022-11-06T17:08:59.697Z,9.11
2022-11-06T17:11:29.778Z,9.09
2022-11-06T17:13:57.806Z,9.13
2022-11-06T17:16:28.817Z,9.02
2022-11-06T17:18:59.555Z,9.11
2022-11-06T17:21:28.280Z,9.13
2022-11-06T17:24:07.642Z,9.09
2022-11-06T17:26:47.178Z,9.10
2022-11-06T17:29:20.972Z,9.18
2022-11-06T17:31:51.935Z,9.21
2022-11-06T17:34:19.702Z,9.19
2022-11-06T17:36:47.484Z,9.28
2022-11-06T17:39:15.367Z,9.32
2022-11-06T17:41:43.114Z,9.30
2022-11-06T17:44:12.264Z,9.32
2022-11-06T17:46:41.577Z,9.26
2022-11-06T17:49:16.766Z,9.24
2022-11-06T17:51:53.060Z,9.17
2022-11-06T17:54:22.512Z,8.93
2022-11-06T17:56:51.343Z,9.02
2022-11-06T17:59:19.055Z,8.99
2022-11-06T18:01:50.524Z,9.04
2022-11-06T18:04:20.846Z,9.10
2022-11-06T18:06:49.530Z,9.08
2022-11-06T18:09:17.560Z,8.97
2022-11-06T18:11:46.796Z,8.91
2022-11-06T18:14:14.687Z,8.85
2022-11-06T18:16:44.129Z,8.67
2022-11-06T18:19:14.884Z,8.63
2022-11-06T18:21:44.206Z,8.62
2022-11-06T18:24:12.124Z,8.48
2022-11-06T18:26:40.222Z,8.44
2022-11-06T18:29:09.016Z,8.52
2022-11-06T18:31:37.088Z,8.54
2022-11-06T18:34:08.309Z,8.48
2022-11-06T18:36:36.730Z,8.44
2022-11-06T18:39:06.630Z,8.30
2022-11-06T18:41:36.680Z,8.30
2022-11-06T18:44:04.797Z,8.47
2022-11-06T18:46:32.471Z,8.53
2022-11-06T18:49:00.448Z,8.47
2022-11-06T18:51:35.569Z,8.54
2022-11-06T18:54:07.288Z,8.60
2022-11-06T18:56:36.138Z,8.83
2022-11-06T18:59:04.700Z,8.85
2022-11-06T19:01:35.580Z,8.70
2022-11-06T19:04:04.928Z,8.70
2022-11-06T19:06:34.997Z,8.73
2022-11-06T19:09:09.478Z,8.69
2022-11-06T19:11:40.594Z,8.72
2022-11-06T19:14:12.634Z,8.80
2022-11-06T19:16:40.445Z,8.77
2022-11-06T19:19:08.408Z,8.79
2022-11-06T19:21:36.796Z,8.85
2022-11-06T19:24:09.469Z,8.84
2022-11-06T19:26:38.811Z,8.95
2022-11-06T19:29:08.688Z,8.98
2022-11-06T19:31:37.532Z,8.94
2022-11-06T19:34:09.437Z,9.00
2022-11-06T19:36:41.277Z,8.93
2022-11-06T19:39:09.512Z,8.94
2022-11-06T19:41:44.225Z,8.94
2022-11-06T19:44:14.381Z,8.93
2022-11-06T19:46:43.766Z,8.89
2022-11-06T19:49:16.464Z,8.90
2022-11-06T19:51:51.874Z,8.85
2022-11-06T19:54:29.078Z,8.85
2022-11-06T19:57:27.504Z,8.82
2022-11-06T19:59:48.553Z,8.81
2022-11-06T20:02:26.339Z,8.72
2022-11-06T20:04:59.950Z,8.70
2022-11-06T20:07:30.125Z,8.69
2022-11-06T20:10:04.152Z,8.70
2022-11-06T20:12:33.573Z,8.63
2022-11-06T20:15:09.129Z,8.68
2022-11-06T20:17:40.425Z,8.73
2022-11-06T20:20:09.944Z,8.67
2022-11-06T20:22:40.243Z,8.59
2022-11-06T20:25:10.422Z,8.54
2022-11-06T20:27:42.554Z,8.59
2022-11-06T20:30:17.714Z,8.61
2022-11-06T20:33:11.140Z,8.52
2022-11-06T20:35:46.591Z,8.48
2022-11-06T20:38:25.973Z,8.48
2022-11-06T20:40:57.101Z,8.48
2022-11-06T20:43:30.871Z,8.49
2022-11-06T20:46:02.829Z,8.59
2022-11-06T20:48:35.599Z,8.63
2022-11-06T20:51:08.870Z,8.53
2022-11-06T20:53:36.894Z,8.61
2022-11-06T20:56:16.711Z,8.59
2022-11-06T20:59:06.844Z,8.63
2022-11-06T21:01:34.836Z,8.65
2022-11-06T21:04:05.786Z,8.71
2022-11-06T21:06:33.907Z,8.73
2022-11-06T21:09:06.253Z,8.69
2022-11-06T21:11:35.562Z,8.76
2022-11-06T21:14:04.988Z,8.80
2022-11-06T21:16:40.684Z,8.83
2022-11-06T21:19:10.561Z,8.80
2022-11-06T21:22:00.899Z,8.83
2022-11-06T21:24:33.518Z,8.86
2022-11-06T21:27:01.391Z,8.86
2022-11-06T21:29:31.006Z,8.83
2022-11-06T21:32:04.717Z,8.82
2022-11-06T21:34:32.738Z,8.87
2022-11-06T21:37:03.097Z,8.87
2022-11-06T21:39:36.514Z,8.90
2022-11-06T21:42:07.216Z,8.89
2022-11-06T21:44:37.815Z,8.82
2022-11-06T21:47:05.787Z,8.94
2022-11-06T21:49:38.873Z,9.01
2022-11-06T21:52:25.116Z,9.02
2022-11-06T21:55:13.316Z,8.93
2022-11-06T21:57:47.289Z,8.93
2022-11-06T22:00:17.018Z,8.93
2022-11-06T22:02:44.976Z,8.92
2022-11-06T22:05:16.461Z,8.83
2022-11-06T22:07:44.184Z,8.87
2022-11-06T22:10:15.445Z,8.88
2022-11-06T22:13:43.276Z,8.92
2022-11-06T22:16:34.007Z,8.96
2022-11-06T22:19:09.751Z,8.88
2022-11-06T22:21:42.495Z,8.86
2022-11-06T22:24:12.554Z,8.89
2022-11-06T22:26:50.710Z,8.95
2022-11-06T22:29:23.983Z,8.96
2022-11-06T22:31:53.237Z,8.93
2022-11-06T22:34:22.938Z,8.96
2022-11-06T22:36:54.723Z,8.95
2022-11-06T22:39:26.418Z,8.92
2022-11-06T22:41:56.533Z,8.97
2022-11-06T22:44:24.604Z,8.92
2022-11-06T22:46:53.757Z,8.93
2022-11-06T22:49:21.610Z,8.98
2022-11-06T22:51:55.823Z,9.01
2022-11-06T22:54:23.882Z,9.03
2022-11-06T22:57:07.629Z,8.99
2022-11-06T22:59:35.426Z,9.01
2022-11-06T23:02:06.698Z,9.05
2022-11-06T23:04:45.146Z,9.02
2022-11-06T23:07:12.881Z,9.02
2022-11-06T23:09:40.580Z,9.05
2022-11-06T23:12:08.572Z,9.01
2022-11-06T23:14:39.296Z,9.06
2022-11-06T23:17:14.882Z,9.05
2022-11-06T23:19:46.063Z,9.04
2022-11-06T23:22:55.929Z,9.09
2022-11-06T23:25:23.861Z,9.16
2022-11-06T23:27:51.872Z,9.12
2022-11-06T23:30:19.812Z,9.14
2022-11-06T23:32:52.006Z,9.18
2022-11-06T23:35:22.760Z,9.16
2022-11-06T23:37:50.474Z,9.16
2022-11-06T23:40:18.072Z,9.21
2022-11-06T23:42:45.634Z,9.22
2022-11-06T23:45:30.699Z,9.16
2022-11-06T23:48:02.201Z,9.15
2022-11-06T23:50:33.593Z,9.22
2022-11-06T23:53:01.091Z,9.18
2022-11-06T23:55:28.718Z,9.21
2022-11-06T23:57:56.273Z,9.24
